KFEW/FEW METAR and TAF weather

Enter ICAO airport designator
Station Type Date Time Source
KFEW METAR 2021/05/15 02:28 UTC NOAA

KFEW 150228Z 00000KT 10SM -SHRA VCTS FEW007 BKN048CB 08/07 A3018 RMK AO2A SHRAB28 SLP187 $


Station Type Date Time Source
KFEW Decoded METAR 2021/05/15 02:28 UTC NOAA

Station name not available
May 14, 2021 - 10:28 PM EDT / 2021.05.15 0228 UTC
Wind: Calm:0
Visibility: 10 mile(s):0
Sky conditions: mostly cloudy
Weather: light rain showers; thunder in the vicinity; Cumulonimbus clouds observed
Temperature: 46 F (8 C)
Dew Point: 44 F (7 C)
Relative Humidity: 93%
Pressure (altimeter): 30.18 in. Hg (1022 hPa)
ob: KFEW 150228Z 00000KT 10SM -SHRA VCTS FEW007 BKN048CB 08/07 A3018 RMK AO2A SHRAB28 SLP187
cycle: 2

Station Type Date Time Source
KFEW TAF UTC NOAA

Error!

Example: see airport list